createdAt,value
2019-05-13T00:00:44.634Z,47.20
2019-05-13T00:03:13.936Z,47.20
2019-05-13T00:05:44.470Z,47.00
2019-05-13T00:08:14.130Z,47.40
2019-05-13T00:10:43.760Z,47.50
2019-05-13T00:13:14.757Z,47.80
2019-05-13T00:15:44.392Z,47.60
2019-05-13T00:18:14.359Z,47.60
2019-05-13T00:20:44.288Z,47.60
2019-05-13T00:23:14.307Z,47.70
2019-05-13T00:25:44.449Z,47.60
2019-05-13T00:28:14.442Z,47.80
2019-05-13T00:30:44.445Z,47.60
2019-05-13T00:33:14.186Z,47.50
2019-05-13T00:35:44.291Z,47.60
2019-05-13T00:38:14.201Z,48.00
2019-05-13T00:40:44.308Z,47.80
2019-05-13T00:43:14.275Z,47.80
2019-05-13T00:45:44.538Z,48.00
2019-05-13T00:48:14.332Z,48.10
2019-05-13T00:50:44.547Z,48.20
2019-05-13T00:53:13.700Z,48.20
2019-05-13T00:55:44.457Z,48.10
2019-05-13T00:58:14.030Z,47.90
2019-05-13T01:00:44.508Z,48.00
2019-05-13T01:03:14.316Z,48.70
2019-05-13T01:05:44.486Z,48.30
2019-05-13T01:08:14.543Z,48.20
2019-05-13T01:10:45.204Z,48.20
2019-05-13T01:13:14.712Z,48.30
2019-05-13T01:15:44.270Z,48.20
2019-05-13T01:18:14.421Z,48.50
2019-05-13T01:20:44.002Z,48.50
2019-05-13T01:23:14.094Z,48.60
2019-05-13T01:25:44.467Z,48.50
2019-05-13T01:28:13.898Z,48.80
2019-05-13T01:30:43.823Z,48.90
2019-05-13T01:33:14.387Z,48.80
2019-05-13T01:35:44.593Z,48.70
2019-05-13T01:38:13.819Z,48.70
2019-05-13T01:40:44.013Z,48.80
2019-05-13T01:43:14.447Z,49.00
2019-05-13T01:45:44.333Z,49.00
2019-05-13T01:48:14.123Z,49.10
2019-05-13T01:50:44.412Z,49.20
2019-05-13T01:53:14.444Z,49.30
2019-05-13T01:55:44.258Z,49.30
2019-05-13T01:58:14.653Z,49.30
2019-05-13T02:00:44.413Z,49.40
2019-05-13T02:03:14.468Z,49.30
2019-05-13T02:05:44.360Z,49.40
2019-05-13T02:08:14.405Z,49.30
2019-05-13T02:10:54.760Z,49.40
2019-05-13T02:13:25.151Z,49.40
2019-05-13T02:16:04.563Z,49.50
2019-05-13T02:18:36.823Z,49.70
2019-05-13T02:21:05.864Z,49.80
2019-05-13T02:23:34.886Z,49.80
2019-05-13T02:26:04.488Z,49.90
2019-05-13T02:28:33.605Z,50.00
2019-05-13T02:31:02.539Z,50.00
2019-05-13T02:33:33.823Z,50.10
2019-05-13T02:36:03.200Z,50.00
2019-05-13T02:38:35.428Z,50.10
2019-05-13T02:41:03.330Z,50.10
2019-05-13T02:43:33.388Z,50.10
2019-05-13T02:46:04.162Z,50.10
2019-05-13T02:48:33.766Z,50.20
2019-05-13T02:51:03.658Z,50.20
2019-05-13T02:53:33.751Z,50.50
2019-05-13T02:56:03.532Z,50.60
2019-05-13T02:58:33.524Z,50.70
2019-05-13T03:01:03.493Z,50.70
2019-05-13T03:03:33.045Z,50.70
2019-05-13T03:06:03.168Z,50.90
2019-05-13T03:08:44.294Z,50.70
2019-05-13T03:11:03.479Z,50.70
2019-05-13T03:13:33.179Z,50.90
2019-05-13T03:16:13.290Z,50.80
2019-05-13T03:18:53.286Z,51.10
2019-05-13T03:21:27.334Z,51.10
2019-05-13T03:23:56.191Z,51.10
2019-05-13T03:26:25.138Z,51.10
2019-05-13T03:28:54.131Z,51.30
2019-05-13T03:31:26.277Z,51.30
2019-05-13T03:33:55.740Z,51.30
2019-05-13T03:36:26.210Z,51.40
2019-05-13T03:39:05.621Z,51.30
2019-05-13T03:41:32.729Z,51.40
2019-05-13T03:44:03.066Z,51.40
2019-05-13T03:46:53.113Z,51.60
2019-05-13T03:49:25.190Z,51.60
2019-05-13T03:51:54.323Z,51.70
2019-05-13T03:54:23.477Z,51.50
2019-05-13T03:56:53.185Z,51.50
2019-05-13T03:59:22.871Z,51.70
2019-05-13T04:01:52.811Z,51.80
2019-05-13T04:04:23.510Z,51.70
2019-05-13T04:06:53.148Z,51.70
2019-05-13T04:09:31.176Z,51.70
2019-05-13T04:11:53.365Z,51.70
2019-05-13T04:14:23.107Z,51.80
2019-05-13T04:16:53.403Z,51.80
2019-05-13T04:19:23.435Z,51.70
2019-05-13T04:21:53.118Z,51.80
2019-05-13T04:24:23.104Z,51.70
2019-05-13T04:26:53.336Z,51.70
2019-05-13T04:29:23.524Z,51.70
2019-05-13T04:31:53.371Z,51.80
2019-05-13T04:34:23.144Z,52.30
2019-05-13T04:36:52.592Z,51.80
2019-05-13T04:39:39.695Z,51.90
2019-05-13T04:41:53.020Z,51.80
2019-05-13T04:44:23.903Z,51.80
2019-05-13T04:46:53.458Z,51.90
2019-05-13T04:49:23.542Z,52.20
2019-05-13T04:51:52.946Z,52.10
2019-05-13T04:54:22.759Z,52.10
2019-05-13T04:56:52.633Z,52.10
2019-05-13T04:59:22.848Z,52.50
2019-05-13T05:02:22.295Z,52.50
2019-05-13T05:04:58.100Z,52.50
2019-05-13T05:07:42.056Z,52.60
2019-05-13T05:10:34.722Z,52.70
2019-05-13T05:13:22.007Z,52.70
2019-05-13T05:16:12.969Z,52.80
2019-05-13T05:19:19.275Z,52.80
2019-05-13T05:22:02.583Z,52.90
2019-05-13T05:25:08.162Z,52.70
2019-05-13T05:27:51.404Z,52.80
2019-05-13T05:31:02.323Z,52.60
2019-05-13T05:34:06.677Z,52.70
2019-05-13T05:36:56.785Z,52.70
2019-05-13T05:39:27.117Z,52.60
2019-05-13T05:41:57.162Z,52.50
2019-05-13T05:44:32.057Z,52.40
2019-05-13T05:47:02.985Z,52.60
2019-05-13T05:49:32.426Z,53.00
2019-05-13T05:52:03.578Z,52.80
2019-05-13T05:54:34.983Z,52.40
2019-05-13T05:57:05.260Z,51.50
2019-05-13T05:59:35.385Z,50.60
2019-05-13T06:02:05.265Z,50.00
2019-05-13T06:04:34.379Z,49.50
2019-05-13T06:07:03.621Z,48.50
2019-05-13T06:09:32.868Z,47.90
2019-05-13T06:12:02.009Z,47.80
2019-05-13T06:14:32.676Z,46.60
2019-05-13T06:17:02.797Z,46.40
2019-05-13T06:19:32.333Z,45.40
2019-05-13T06:22:02.219Z,44.60
2019-05-13T06:24:31.677Z,44.50
2019-05-13T06:27:01.523Z,43.90
2019-05-13T06:29:31.796Z,44.00
2019-05-13T06:32:15.189Z,44.10
2019-05-13T06:34:32.994Z,42.80
2019-05-13T06:37:02.231Z,43.10
2019-05-13T06:39:31.822Z,42.70
2019-05-13T06:42:02.649Z,42.50
2019-05-13T06:44:32.278Z,42.10
2019-05-13T06:47:02.573Z,41.70
2019-05-13T06:49:32.515Z,40.00
2019-05-13T06:52:02.102Z,41.00
2019-05-13T06:54:33.136Z,40.70
2019-05-13T06:57:05.085Z,40.00
2019-05-13T06:59:32.782Z,39.70
2019-05-13T07:02:02.353Z,39.30
2019-05-13T07:04:32.642Z,38.30
2019-05-13T07:07:12.842Z,38.20
2019-05-13T07:09:32.869Z,37.60
2019-05-13T07:12:03.085Z,38.30
2019-05-13T07:14:32.737Z,38.50
2019-05-13T07:17:02.352Z,37.60
2019-05-13T07:19:32.503Z,37.10
2019-05-13T07:22:03.114Z,36.70
2019-05-13T07:24:32.654Z,37.20
2019-05-13T07:27:02.262Z,36.70
2019-05-13T07:29:32.478Z,36.80
2019-05-13T07:32:02.299Z,37.10
2019-05-13T07:34:33.280Z,35.90
2019-05-13T07:37:02.707Z,36.50
2019-05-13T07:39:32.947Z,36.40
2019-05-13T07:42:05.442Z,36.10
2019-05-13T07:44:32.842Z,35.60
2019-05-13T07:47:03.521Z,36.00
2019-05-13T07:49:32.610Z,36.30
2019-05-13T07:52:02.000Z,36.00
2019-05-13T07:54:32.906Z,35.50
2019-05-13T07:57:02.379Z,36.20
2019-05-13T07:59:32.082Z,36.10
2019-05-13T08:02:02.486Z,36.00
2019-05-13T08:04:33.422Z,36.50
2019-05-13T08:07:02.631Z,36.50
2019-05-13T08:09:32.321Z,37.00
2019-05-13T08:12:09.870Z,37.80
2019-05-13T08:14:33.194Z,37.40
2019-05-13T08:17:02.877Z,37.60
2019-05-13T08:19:32.822Z,36.60
2019-05-13T08:22:02.542Z,36.50
2019-05-13T08:24:31.858Z,36.10
2019-05-13T08:27:02.082Z,35.00
2019-05-13T08:29:32.698Z,35.40
2019-05-13T08:32:02.986Z,35.10
2019-05-13T08:34:33.049Z,33.80
2019-05-13T08:37:03.228Z,34.60
2019-05-13T08:39:38.073Z,34.30
2019-05-13T08:42:15.012Z,34.10
2019-05-13T08:44:34.205Z,33.70
2019-05-13T08:47:03.623Z,33.90
2019-05-13T08:49:33.013Z,34.30
2019-05-13T08:52:02.189Z,33.90
2019-05-13T08:54:32.935Z,33.50
2019-05-13T08:57:02.922Z,33.50
2019-05-13T08:59:32.400Z,33.60
2019-05-13T09:02:02.981Z,33.40
2019-05-13T09:04:32.198Z,33.70
2019-05-13T09:07:02.448Z,33.70
2019-05-13T09:09:31.809Z,33.40
2019-05-13T09:12:02.414Z,32.30
2019-05-13T09:14:32.525Z,32.70
2019-05-13T09:17:04.932Z,33.30
2019-05-13T09:19:33.947Z,33.60
2019-05-13T09:22:03.485Z,33.80
2019-05-13T09:24:37.237Z,33.40
2019-05-13T09:27:03.334Z,33.30
2019-05-13T09:29:32.577Z,32.20
2019-05-13T09:32:03.936Z,32.60
2019-05-13T09:34:33.055Z,31.40
2019-05-13T09:37:02.924Z,31.80
2019-05-13T09:39:33.130Z,31.50
2019-05-13T09:42:02.929Z,31.50
2019-05-13T09:44:32.944Z,31.40
2019-05-13T09:47:02.812Z,31.50
2019-05-13T09:49:33.147Z,31.40
2019-05-13T09:52:02.678Z,31.10
2019-05-13T09:54:33.028Z,31.40
2019-05-13T09:57:02.154Z,31.40
2019-05-13T09:59:32.073Z,30.30
2019-05-13T10:02:02.922Z,30.30
2019-05-13T10:04:32.111Z,30.60
2019-05-13T10:07:02.201Z,29.80
2019-05-13T10:09:32.829Z,29.10
2019-05-13T10:12:03.142Z,28.90
2019-05-13T10:14:33.228Z,28.70
2019-05-13T10:17:06.122Z,29.30
2019-05-13T10:19:33.183Z,28.70
2019-05-13T10:22:03.556Z,27.90
2019-05-13T10:24:32.976Z,27.20
2019-05-13T10:27:07.807Z,27.30
2019-05-13T10:29:37.444Z,27.60
2019-05-13T10:32:06.547Z,28.50
2019-05-13T10:34:35.695Z,28.80
2019-05-13T10:37:04.683Z,29.20
2019-05-13T10:39:33.728Z,29.70
2019-05-13T10:42:03.825Z,30.30
2019-05-13T10:44:33.301Z,30.30
2019-05-13T10:47:02.630Z,30.50
2019-05-13T10:49:33.147Z,30.70
2019-05-13T10:52:03.214Z,30.60
2019-05-13T10:54:33.670Z,30.40
2019-05-13T10:57:03.874Z,30.70
2019-05-13T10:59:33.355Z,30.70
2019-05-13T11:02:02.578Z,30.40
2019-05-13T11:04:35.149Z,29.90
2019-05-13T11:07:04.320Z,30.00
2019-05-13T11:09:33.222Z,29.60
2019-05-13T11:12:03.605Z,30.10
2019-05-13T11:14:36.535Z,30.10
2019-05-13T11:17:06.063Z,30.10
2019-05-13T11:19:37.134Z,30.50
2019-05-13T11:22:06.289Z,30.80
2019-05-13T11:24:35.186Z,30.00
2019-05-13T11:27:04.595Z,30.10
2019-05-13T11:29:33.532Z,30.80
2019-05-13T11:32:02.919Z,30.20
2019-05-13T11:34:32.863Z,31.40
2019-05-13T11:37:03.734Z,30.70
2019-05-13T11:39:33.062Z,30.70
2019-05-13T11:42:02.459Z,30.60
2019-05-13T11:44:32.417Z,32.20
2019-05-13T11:47:02.932Z,31.90
2019-05-13T11:49:32.070Z,31.40
2019-05-13T11:52:02.750Z,31.30
2019-05-13T11:54:31.801Z,31.80
2019-05-13T11:57:05.767Z,32.30
2019-05-13T11:59:32.967Z,33.10
2019-05-13T12:02:04.417Z,32.90
2019-05-13T12:04:38.057Z,33.30
2019-05-13T12:07:07.062Z,33.30
2019-05-13T12:09:36.132Z,33.60
2019-05-13T12:12:06.430Z,33.40
2019-05-13T12:14:50.632Z,33.60
2019-05-13T12:17:06.199Z,34.10
2019-05-13T12:19:35.204Z,34.20
2019-05-13T12:22:06.975Z,34.10
2019-05-13T12:24:41.329Z,34.20
2019-05-13T12:27:10.998Z,34.30
2019-05-13T12:29:42.950Z,34.50
2019-05-13T12:32:13.557Z,34.60
2019-05-13T12:34:48.208Z,34.70
2019-05-13T12:37:17.366Z,34.90
2019-05-13T12:39:46.340Z,35.00
2019-05-13T12:42:15.663Z,35.10
2019-05-13T12:45:00.594Z,35.10
2019-05-13T12:47:17.726Z,35.40
2019-05-13T12:49:46.612Z,35.50
2019-05-13T12:52:22.880Z,35.60
2019-05-13T12:54:52.842Z,35.70
2019-05-13T12:57:23.134Z,35.70
2019-05-13T12:59:52.372Z,35.80
2019-05-13T13:02:22.654Z,35.80
2019-05-13T13:05:10.611Z,36.20
2019-05-13T13:07:22.510Z,36.30
2019-05-13T13:09:53.660Z,36.10
2019-05-13T13:12:32.736Z,36.80
2019-05-13T13:14:54.473Z,36.40
2019-05-13T13:17:24.397Z,36.50
2019-05-13T13:19:54.725Z,36.50
2019-05-13T13:22:25.484Z,36.50
2019-05-13T13:24:57.344Z,36.50
2019-05-13T13:27:57.396Z,36.70
2019-05-13T13:30:03.104Z,36.70
2019-05-13T13:32:26.958Z,36.80
2019-05-13T13:34:55.898Z,36.80
2019-05-13T13:37:25.402Z,37.00
2019-05-13T13:39:55.385Z,37.10
2019-05-13T13:42:24.693Z,37.20
2019-05-13T13:44:55.617Z,37.30
2019-05-13T13:47:24.647Z,37.40
2019-05-13T13:49:53.732Z,37.50
2019-05-13T13:52:23.154Z,37.70
2019-05-13T13:55:01.962Z,37.50
2019-05-13T13:57:25.661Z,37.70
2019-05-13T14:00:20.061Z,37.70
2019-05-13T14:02:26.041Z,37.80
2019-05-13T14:04:54.984Z,37.90
2019-05-13T14:07:34.715Z,38.00
2019-05-13T14:09:54.464Z,38.00
2019-05-13T14:12:23.482Z,38.10
2019-05-13T14:14:52.455Z,38.10
2019-05-13T14:17:21.979Z,38.20
2019-05-13T14:19:52.412Z,38.20
2019-05-13T14:22:21.949Z,38.20
2019-05-13T14:24:52.000Z,38.90
2019-05-13T14:27:22.411Z,38.40
2019-05-13T14:29:52.622Z,38.50
2019-05-13T14:32:22.526Z,38.60
2019-05-13T14:34:52.496Z,38.70
2019-05-13T14:37:22.478Z,38.70
2019-05-13T14:39:51.625Z,38.80
2019-05-13T14:42:22.712Z,38.80
2019-05-13T14:44:52.114Z,38.90
2019-05-13T14:47:21.917Z,39.00
2019-05-13T14:49:52.120Z,38.90
2019-05-13T14:52:22.361Z,39.00
2019-05-13T14:54:51.605Z,38.90
2019-05-13T14:57:21.766Z,38.90
2019-05-13T14:59:51.515Z,39.10
2019-05-13T15:02:20.741Z,39.10
2019-05-13T15:04:52.143Z,39.20
2019-05-13T15:07:21.627Z,39.10
2019-05-13T15:09:51.547Z,39.20
2019-05-13T15:12:21.667Z,39.10
2019-05-13T15:14:52.253Z,39.30
2019-05-13T15:17:21.884Z,39.30
2019-05-13T15:19:52.469Z,39.50
2019-05-13T15:22:22.743Z,39.50
2019-05-13T15:24:52.187Z,39.50
2019-05-13T15:27:22.283Z,40.20
2019-05-13T15:29:51.796Z,39.50
2019-05-13T15:32:21.737Z,39.50
2019-05-13T15:34:54.068Z,39.40
2019-05-13T15:37:23.034Z,39.50
2019-05-13T15:39:52.062Z,39.60
2019-05-13T15:42:21.456Z,39.50
2019-05-13T15:44:52.560Z,39.60
2019-05-13T15:47:24.071Z,39.60
2019-05-13T15:49:52.543Z,39.70
2019-05-13T15:52:22.650Z,39.70
2019-05-13T15:54:52.303Z,39.80
2019-05-13T15:57:21.554Z,39.70
2019-05-13T15:59:51.793Z,39.90
2019-05-13T16:02:22.657Z,39.90
2019-05-13T16:04:59.846Z,39.90
2019-05-13T16:07:22.751Z,40.00
2019-05-13T16:09:52.618Z,40.00
2019-05-13T16:12:21.926Z,40.00
2019-05-13T16:14:51.157Z,40.00
2019-05-13T16:17:26.163Z,40.00
2019-05-13T16:19:53.384Z,39.90
2019-05-13T16:22:23.070Z,40.20
2019-05-13T16:24:52.344Z,40.20
2019-05-13T16:27:21.673Z,40.20
2019-05-13T16:29:51.644Z,40.20
2019-05-13T16:32:22.705Z,40.20
2019-05-13T16:34:52.114Z,40.20
2019-05-13T16:37:22.002Z,40.20
2019-05-13T16:39:52.029Z,40.30
2019-05-13T16:42:22.517Z,40.30
2019-05-13T16:44:51.800Z,40.30
2019-05-13T16:47:21.316Z,40.20
2019-05-13T16:49:50.258Z,40.40
2019-05-13T16:52:19.268Z,40.40
2019-05-13T16:54:48.309Z,40.50
2019-05-13T16:57:17.313Z,40.40
2019-05-13T16:59:46.301Z,40.40
2019-05-13T17:02:15.311Z,40.50
2019-05-13T17:04:44.178Z,40.60
2019-05-13T17:07:13.181Z,40.40
2019-05-13T17:09:42.141Z,40.30
2019-05-13T17:12:13.911Z,40.30
2019-05-13T17:14:42.053Z,40.40
2019-05-13T17:17:11.929Z,40.50
2019-05-13T17:19:42.203Z,40.70
2019-05-13T17:22:11.564Z,40.70
2019-05-13T17:24:42.623Z,40.70
2019-05-13T17:27:12.127Z,40.50
2019-05-13T17:29:41.480Z,40.60
2019-05-13T17:32:11.687Z,40.60
2019-05-13T17:34:43.634Z,40.40
2019-05-13T17:37:14.882Z,40.50
2019-05-13T17:39:44.003Z,40.60
2019-05-13T17:42:13.006Z,40.70
2019-05-13T17:44:45.861Z,40.70
2019-05-13T17:47:12.853Z,40.90
2019-05-13T17:49:41.943Z,41.00
2019-05-13T17:52:11.878Z,41.20
2019-05-13T17:54:42.851Z,41.20
2019-05-13T17:57:12.478Z,41.00
2019-05-13T17:59:41.886Z,40.90
2019-05-13T18:02:11.837Z,41.00
2019-05-13T18:04:41.585Z,40.90
2019-05-13T18:07:12.242Z,41.20
2019-05-13T18:09:42.305Z,41.20
2019-05-13T18:12:11.630Z,41.40
2019-05-13T18:14:41.329Z,41.30
2019-05-13T18:17:12.558Z,41.50
2019-05-13T18:19:42.161Z,41.30
2019-05-13T18:22:11.625Z,42.00
2019-05-13T18:24:40.697Z,41.50
2019-05-13T18:27:12.071Z,42.00
2019-05-13T18:29:41.994Z,41.40
2019-05-13T18:32:12.351Z,41.60
2019-05-13T18:34:41.582Z,41.50
2019-05-13T18:37:11.883Z,41.60
2019-05-13T18:39:41.745Z,41.60
2019-05-13T18:42:11.522Z,41.70
2019-05-13T18:44:42.144Z,41.80
2019-05-13T18:47:12.209Z,42.00
2019-05-13T18:49:42.290Z,42.00
2019-05-13T18:52:12.006Z,42.00
2019-05-13T18:54:42.118Z,42.00
2019-05-13T18:57:12.254Z,42.00
2019-05-13T18:59:41.742Z,42.10
2019-05-13T19:02:12.258Z,42.10
2019-05-13T19:04:41.855Z,42.30
2019-05-13T19:07:11.058Z,42.30
2019-05-13T19:09:41.725Z,42.40
2019-05-13T19:12:11.683Z,42.40
2019-05-13T19:14:41.232Z,42.50
2019-05-13T19:17:12.423Z,42.50
2019-05-13T19:19:42.179Z,42.70
2019-05-13T19:22:12.288Z,42.70
2019-05-13T19:24:41.728Z,42.70
2019-05-13T19:27:12.047Z,42.80
2019-05-13T19:29:42.509Z,42.80
2019-05-13T19:32:12.434Z,43.00
2019-05-13T19:34:42.317Z,43.60
2019-05-13T19:37:11.743Z,43.20
2019-05-13T19:39:40.799Z,43.20
2019-05-13T19:42:11.559Z,43.10
2019-05-13T19:44:42.059Z,43.30
2019-05-13T19:47:12.362Z,43.20
2019-05-13T19:49:46.108Z,43.30
2019-05-13T19:52:12.605Z,43.50
2019-05-13T19:54:41.971Z,43.60
2019-05-13T19:57:11.944Z,43.60
2019-05-13T19:59:42.682Z,43.70
2019-05-13T20:02:12.368Z,43.80
2019-05-13T20:04:41.810Z,43.70
2019-05-13T20:07:11.828Z,43.90
2019-05-13T20:09:42.535Z,43.90
2019-05-13T20:12:11.970Z,44.10
2019-05-13T20:14:40.935Z,44.20
2019-05-13T20:17:12.129Z,44.10
2019-05-13T20:19:47.790Z,43.90
2019-05-13T20:22:11.681Z,43.80
2019-05-13T20:24:42.006Z,43.50
2019-05-13T20:27:12.022Z,43.40
2019-05-13T20:29:41.798Z,43.60
2019-05-13T20:32:11.638Z,43.10
2019-05-13T20:34:40.733Z,43.20
2019-05-13T20:37:12.242Z,43.20
2019-05-13T20:39:42.424Z,42.60
2019-05-13T20:42:12.473Z,42.60
2019-05-13T20:44:42.103Z,42.60
2019-05-13T20:47:11.052Z,42.30
2019-05-13T20:49:41.748Z,42.30
2019-05-13T20:52:14.670Z,42.50
2019-05-13T20:54:41.674Z,41.70
2019-05-13T20:57:11.116Z,41.80
2019-05-13T20:59:41.363Z,42.00
2019-05-13T21:02:12.487Z,42.30
2019-05-13T21:04:41.523Z,42.20
2019-05-13T21:07:10.461Z,42.20
2019-05-13T21:09:39.344Z,41.80
2019-05-13T21:12:08.352Z,42.20
2019-05-13T21:14:38.613Z,42.10
2019-05-13T21:17:07.819Z,42.10
2019-05-13T21:19:39.660Z,42.30
2019-05-13T21:22:07.465Z,42.60
2019-05-13T21:24:36.476Z,42.70
2019-05-13T21:27:05.523Z,42.70
2019-05-13T21:29:34.465Z,43.00
2019-05-13T21:32:03.425Z,43.10
2019-05-13T21:34:32.480Z,43.40
2019-05-13T21:37:02.274Z,43.30
2019-05-13T21:39:33.135Z,43.30
2019-05-13T21:42:02.510Z,43.40
2019-05-13T21:44:32.644Z,43.30
2019-05-13T21:47:02.276Z,43.70
2019-05-13T21:49:31.979Z,44.20
2019-05-13T21:52:01.165Z,43.80
2019-05-13T21:54:33.260Z,44.10
2019-05-13T21:57:02.257Z,44.00
2019-05-13T21:59:32.112Z,43.90
2019-05-13T22:02:02.216Z,44.00
2019-05-13T22:04:31.430Z,44.00
2019-05-13T22:07:01.467Z,44.20
2019-05-13T22:09:31.759Z,44.00
2019-05-13T22:12:02.008Z,44.30
2019-05-13T22:14:31.944Z,44.20
2019-05-13T22:17:01.725Z,44.30
2019-05-13T22:19:31.605Z,44.40
2019-05-13T22:22:02.322Z,44.50
2019-05-13T22:24:31.633Z,44.60
2019-05-13T22:27:01.959Z,44.40
2019-05-13T22:29:32.141Z,44.80
2019-05-13T22:32:02.023Z,44.30
2019-05-13T22:34:32.030Z,44.60
2019-05-13T22:37:02.719Z,44.70
2019-05-13T22:39:34.611Z,45.00
2019-05-13T22:42:02.411Z,44.90
2019-05-13T22:44:32.475Z,44.80
2019-05-13T22:47:02.562Z,44.90
2019-05-13T22:49:31.775Z,45.00
2019-05-13T22:52:00.769Z,44.80
2019-05-13T22:54:31.670Z,44.90
2019-05-13T22:57:00.252Z,45.20
2019-05-13T22:59:29.114Z,45.30
2019-05-13T23:01:58.116Z,45.10
2019-05-13T23:04:27.014Z,45.20
2019-05-13T23:06:55.922Z,45.20
2019-05-13T23:09:24.868Z,45.00
2019-05-13T23:11:53.883Z,45.00
2019-05-13T23:14:22.983Z,44.90
2019-05-13T23:16:52.004Z,45.10
2019-05-13T23:19:21.741Z,45.50
2019-05-13T23:21:51.215Z,45.40
2019-05-13T23:24:21.829Z,45.80
2019-05-13T23:26:51.638Z,45.80
2019-05-13T23:29:21.377Z,46.10
2019-05-13T23:31:52.077Z,46.10
2019-05-13T23:34:22.282Z,46.20
2019-05-13T23:36:51.733Z,45.90
2019-05-13T23:39:21.586Z,46.40
2019-05-13T23:41:52.144Z,46.40
2019-05-13T23:44:27.113Z,46.50
2019-05-13T23:46:51.951Z,46.70
2019-05-13T23:49:21.186Z,46.90
2019-05-13T23:51:52.025Z,46.70
2019-05-13T23:54:21.450Z,46.70
2019-05-13T23:56:50.525Z,46.90
2019-05-13T23:59:21.770Z,47.00
